Time;durP1;ratioP1;P1;durP2;ratioP2;P2;SDS_P1;SDS_P2;PMS_P1;PMS_P2;Temp;Humidity;BMP_temperature;BMP_pressure;BME280_temperature;BME280_humidity;BME280_pressure;Samples;Min_cycle;Max_cycle;Signal;HPM_P1;HPM_P2
2022/01/11 00:00:49;;;;;;;202.63;24.88;;;-0.20;96.90;;;;;;5079390;28;20057;-75
2022/01/11 00:03:17;;;;;;;72.38;19.85;;;-0.20;96.90;;;;;;5064465;28;20049;-75
2022/01/11 00:05:53;;;;;;;146.38;22.42;;;-0.20;96.90;;;;;;5083095;28;20059;-74
2022/01/11 00:08:29;;;;;;;131.20;22.35;;;-0.20;96.80;;;;;;5084033;28;20849;-74
2022/01/11 00:11:03;;;;;;;63.85;19.42;;;-0.20;96.80;;;;;;5084990;28;20131;-75
2022/01/11 00:13:35;;;;;;;141.38;22.23;;;-0.10;96.80;;;;;;5077749;28;20055;-76
2022/01/11 00:16:03;;;;;;;137.43;22.48;;;-0.10;96.90;;;;;;5079699;28;20140;-75
2022/01/11 00:18:30;;;;;;;144.13;24.50;;;-0.10;96.70;;;;;;5065152;28;20034;-75
2022/01/11 00:20:57;;;;;;;181.18;24.23;;;-0.10;96.80;;;;;;5063378;28;20082;-75
2022/01/11 00:25:55;;;;;;;170.35;24.90;;;-0.10;96.80;;;;;;5084175;28;20055;-74
2022/01/11 00:28:25;;;;;;;309.35;27.83;;;-0.10;96.70;;;;;;5088484;28;20105;-77
2022/01/11 00:30:53;;;;;;;269.15;27.45;;;-0.10;96.80;;;;;;5094407;28;20052;-75
2022/01/11 00:33:34;;;;;;;218.43;25.60;;;-0.10;96.90;;;;;;5079274;28;20505;-79
2022/01/11 00:36:02;;;;;;;184.30;27.10;;;-0.10;96.90;;;;;;5087284;28;20031;-74
2022/01/11 00:38:33;;;;;;;148.48;27.23;;;-0.10;97.00;;;;;;5071095;28;20053;-75
2022/01/11 00:41:03;;;;;;;204.15;25.05;;;-0.10;97.00;;;;;;5079016;28;20060;-74
2022/01/11 00:43:30;;;;;;;146.15;25.33;;;0.00;97.20;;;;;;5092272;28;20059;-78
2022/01/11 00:45:57;;;;;;;170.77;26.58;;;-0.10;97.10;;;;;;5078314;28;20162;-75
2022/01/11 00:48:24;;;;;;;279.33;29.60;;;-0.10;97.20;;;;;;5076058;28;20087;-76
2022/01/11 00:50:52;;;;;;;208.48;26.95;;;0.00;97.20;;;;;;5079473;28;20049;-75
2022/01/11 00:53:19;;;;;;;172.45;26.23;;;0.00;97.20;;;;;;5079314;28;20037;-75
2022/01/11 00:55:47;;;;;;;113.47;23.75;;;-0.10;97.20;;;;;;5084445;28;20132;-74
2022/01/11 00:58:15;;;;;;;132.48;25.15;;;-0.10;97.10;;;;;;5086677;28;20100;-77
2022/01/11 01:00:42;;;;;;;170.38;29.40;;;0.00;97.20;;;;;;5086378;28;20045;-75
2022/01/11 01:03:13;;;;;;;112.80;24.23;;;0.00;97.30;;;;;;5084048;28;20056;-76
2022/01/11 01:05:42;;;;;;;111.82;25.08;;;0.00;97.30;;;;;;5071831;28;20042;-75
2022/01/11 01:08:09;;;;;;;101.82;24.98;;;0.00;97.30;;;;;;5084217;28;20041;-76
2022/01/11 01:10:38;;;;;;;106.32;24.77;;;0.00;97.30;;;;;;5085315;28;20763;-75
2022/01/11 01:13:08;;;;;;;105.00;23.33;;;0.00;97.30;;;;;;5082641;28;20131;-76
2022/01/11 01:15:36;;;;;;;169.98;27.52;;;0.00;97.30;;;;;;5080942;28;20148;-75
2022/01/11 01:18:05;;;;;;;143.82;25.95;;;0.00;97.30;;;;;;5080274;28;20045;-75
2022/01/11 01:20:32;;;;;;;85.78;23.23;;;0.00;97.20;;;;;;5077622;28;20100;-75
2022/01/11 01:22:59;;;;;;;110.65;24.50;;;0.00;97.20;;;;;;5084964;28;20045;-76
2022/01/11 01:25:26;;;;;;;128.68;24.77;;;0.00;97.20;;;;;;5084133;28;20061;-76
2022/01/11 01:27:57;;;;;;;146.13;27.00;;;0.00;97.20;;;;;;5081668;28;20136;-75
2022/01/11 01:30:23;;;;;;;147.30;26.88;;;0.00;97.10;;;;;;5087349;28;20045;-77
2022/01/11 01:32:51;;;;;;;173.00;28.13;;;-0.10;97.20;;;;;;5087756;28;20047;-77
2022/01/11 01:35:21;;;;;;;142.18;26.90;;;0.00;97.20;;;;;;5091733;28;20048;-76
2022/01/11 01:37:48;;;;;;;99.28;24.92;;;-0.10;97.30;;;;;;5096221;28;20036;-75
2022/01/11 01:40:17;;;;;;;163.88;28.25;;;0.00;97.30;;;;;;5088971;28;20970;-75
2022/01/11 01:42:46;;;;;;;145.48;28.42;;;0.00;97.30;;;;;;5093559;28;20072;-75
2022/01/11 01:45:13;;;;;;;205.77;30.30;;;-0.10;97.30;;;;;;5073498;28;20108;-77
2022/01/11 01:47:43;;;;;;;162.65;28.98;;;-0.10;97.30;;;;;;5088809;28;20554;-75
2022/01/11 01:50:10;;;;;;;135.05;27.02;;;-0.10;97.40;;;;;;5083889;28;20063;-76
2022/01/11 01:52:37;;;;;;;183.52;26.05;;;-0.10;97.50;;;;;;5068815;28;20093;-75
2022/01/11 01:55:06;;;;;;;101.90;24.85;;;-0.10;97.50;;;;;;5092774;28;20091;-76
2022/01/11 01:57:36;;;;;;;111.63;25.50;;;0.00;97.60;;;;;;5101185;28;20045;-75
2022/01/11 02:00:11;;;;;;;96.40;23.85;;;0.00;97.60;;;;;;5096803;28;20053;-75
2022/01/11 02:02:39;;;;;;;83.00;22.00;;;-0.10;97.50;;;;;;5073807;28;20044;-75
2022/01/11 02:05:06;;;;;;;79.85;21.98;;;-0.10;97.40;;;;;;5089234;28;20042;-75
2022/01/11 02:07:36;;;;;;;85.47;22.67;;;-0.10;97.30;;;;;;5064835;28;20044;-76
2022/01/11 02:10:06;;;;;;;77.18;21.75;;;0.00;97.40;;;;;;5089507;28;20105;-75
2022/01/11 02:12:33;;;;;;;80.32;22.10;;;0.00;97.40;;;;;;5086427;28;20053;-75
2022/01/11 02:15:00;;;;;;;86.72;23.38;;;0.00;97.30;;;;;;5075990;28;20084;-75
2022/01/11 02:17:28;;;;;;;98.07;22.83;;;0.00;97.30;;;;;;5087656;28;20044;-76
2022/01/11 02:19:56;;;;;;;78.50;22.95;;;0.00;97.30;;;;;;5054867;28;20046;-76
2022/01/11 02:22:24;;;;;;;90.35;23.27;;;0.00;97.20;;;;;;5081597;28;20071;-75
2022/01/11 02:24:52;;;;;;;114.88;23.80;;;0.10;97.20;;;;;;5081499;28;20068;-75
2022/01/11 02:27:20;;;;;;;77.85;21.00;;;0.00;97.00;;;;;;5057455;28;20084;-75
2022/01/11 02:29:48;;;;;;;107.60;22.67;;;-0.10;96.90;;;;;;5086713;28;20068;-76
2022/01/11 02:32:14;;;;;;;95.93;22.50;;;-0.10;96.90;;;;;;5088412;28;20122;-76
2022/01/11 02:34:41;;;;;;;113.75;22.55;;;-0.10;97.00;;;;;;5090745;28;20059;-76
2022/01/11 02:37:08;;;;;;;107.93;22.27;;;-0.20;96.80;;;;;;5086011;28;20132;-75
2022/01/11 02:39:35;;;;;;;108.97;23.38;;;-0.20;96.80;;;;;;5089500;28;20105;-77
2022/01/11 02:42:02;;;;;;;82.63;21.35;;;-0.20;96.80;;;;;;5093899;28;20116;-74
2022/01/11 02:44:29;;;;;;;75.00;19.90;;;-0.20;96.80;;;;;;5073058;28;20114;-77
2022/01/11 02:46:56;;;;;;;76.97;20.52;;;-0.20;96.90;;;;;;5088115;28;20105;-76
2022/01/11 02:49:23;;;;;;;85.63;22.27;;;-0.20;96.80;;;;;;5083652;28;20045;-75
2022/01/11 02:51:50;;;;;;;76.22;21.92;;;-0.20;96.80;;;;;;5091748;28;20035;-75
2022/01/11 02:54:17;;;;;;;74.95;21.30;;;-0.20;96.80;;;;;;5081740;28;20109;-75
2022/01/11 02:56:47;;;;;;;71.00;20.92;;;-0.30;96.80;;;;;;5083624;28;20045;-76
2022/01/11 02:59:13;;;;;;;81.80;20.02;;;-0.30;96.70;;;;;;5088585;28;20101;-76
2022/01/11 03:01:42;;;;;;;69.40;20.88;;;-0.20;96.60;;;;;;5062737;28;20057;-76
2022/01/11 03:04:12;;;;;;;75.50;21.42;;;-0.20;96.70;;;;;;5069293;28;20041;-77
2022/01/11 03:06:38;;;;;;;67.05;20.48;;;-0.30;96.60;;;;;;5082193;28;20076;-76
2022/01/11 03:09:05;;;;;;;75.38;21.67;;;-0.20;96.50;;;;;;5086614;28;20045;-76
2022/01/11 03:11:33;;;;;;;80.43;22.02;;;-0.20;96.60;;;;;;5078981;28;20045;-75
2022/01/11 03:14:02;;;;;;;68.60;21.42;;;-0.20;96.60;;;;;;5090361;28;20143;-75
2022/01/11 03:16:29;;;;;;;81.30;21.70;;;-0.20;96.60;;;;;;5090195;28;20131;-76
2022/01/11 03:18:56;;;;;;;79.32;20.77;;;-0.20;96.60;;;;;;5081322;28;20698;-76
2022/01/11 03:21:23;;;;;;;77.63;21.73;;;-0.20;96.50;;;;;;5082184;28;20049;-76
2022/01/11 03:23:50;;;;;;;79.32;22.48;;;-0.20;96.50;;;;;;5082633;28;20101;-75
2022/01/11 03:26:16;;;;;;;74.57;22.38;;;-0.20;96.40;;;;;;5084107;28;20101;-76
2022/01/11 03:28:46;;;;;;;54.67;19.92;;;-0.30;96.30;;;;;;5087995;28;20051;-76
2022/01/11 03:31:13;;;;;;;65.80;21.00;;;-0.30;96.30;;;;;;5070170;28;20073;-75
2022/01/11 03:33:39;;;;;;;74.45;20.65;;;-0.30;96.30;;;;;;5069583;28;20064;-75
2022/01/11 03:36:06;;;;;;;74.38;21.15;;;-0.30;96.40;;;;;;5097516;28;20036;-75
2022/01/11 03:38:34;;;;;;;78.88;22.27;;;-0.30;96.40;;;;;;5081948;28;20052;-75
2022/01/11 03:41:01;;;;;;;79.82;22.75;;;-0.30;96.40;;;;;;5077154;28;20104;-76
2022/01/11 03:43:28;;;;;;;74.35;21.92;;;-0.30;96.30;;;;;;5089432;28;20037;-76
2022/01/11 03:45:57;;;;;;;77.20;23.08;;;-0.30;96.40;;;;;;5084340;28;20041;-77
2022/01/11 03:48:24;;;;;;;75.57;22.25;;;-0.30;96.40;;;;;;5084076;28;20104;-76
2022/01/11 03:50:55;;;;;;;70.97;22.20;;;-0.30;96.30;;;;;;5098077;28;20048;-76
2022/01/11 03:53:31;;;;;;;77.40;21.38;;;-0.20;96.40;;;;;;5084713;28;20037;-75
2022/01/11 03:58:26;;;;;;;77.13;22.40;;;-0.30;96.20;;;;;;5086749;28;20073;-75
2022/01/11 04:00:54;;;;;;;75.97;22.80;;;-0.30;96.10;;;;;;5098509;28;20159;-75
2022/01/11 04:03:22;;;;;;;77.78;22.23;;;-0.30;96.00;;;;;;5067250;28;20049;-75
2022/01/11 04:05:49;;;;;;;74.07;22.80;;;-0.30;96.10;;;;;;5083067;28;20105;-76
2022/01/11 04:08:19;;;;;;;74.50;22.77;;;-0.30;96.10;;;;;;5062295;28;20064;-75
2022/01/11 04:10:46;;;;;;;71.82;23.05;;;-0.30;96.20;;;;;;5091233;28;20051;-76
2022/01/11 04:13:13;;;;;;;79.70;23.10;;;-0.30;96.20;;;;;;5088790;28;20073;-75
2022/01/11 04:15:40;;;;;;;93.25;22.52;;;-0.30;96.10;;;;;;5093320;28;20044;-77
2022/01/11 04:18:07;;;;;;;91.32;23.35;;;-0.30;96.10;;;;;;5087437;28;20049;-75
2022/01/11 04:20:33;;;;;;;78.97;23.80;;;-0.30;96.20;;;;;;5093188;28;20045;-77
2022/01/11 04:23:00;;;;;;;91.60;23.15;;;-0.30;96.20;;;;;;5081085;28;20138;-75
2022/01/11 04:25:27;;;;;;;83.38;22.48;;;-0.30;96.20;;;;;;5087388;28;20789;-75
2022/01/11 04:27:54;;;;;;;69.68;22.30;;;-0.30;96.30;;;;;;5088211;28;20096;-75
2022/01/11 04:30:21;;;;;;;78.65;22.65;;;-0.30;96.20;;;;;;5086249;28;20076;-78
2022/01/11 04:32:48;;;;;;;75.90;23.95;;;-0.30;96.20;;;;;;5087566;28;20101;-76
2022/01/11 04:35:18;;;;;;;85.10;24.35;;;-0.40;96.20;;;;;;5088827;28;20033;-77
2022/01/11 04:37:50;;;;;;;90.53;24.85;;;-0.40;96.20;;;;;;5074714;28;20049;-75
2022/01/11 04:40:24;;;;;;;90.18;25.25;;;-0.40;96.10;;;;;;5066269;28;20111;-76
2022/01/11 04:42:52;;;;;;;86.57;24.52;;;-0.40;96.20;;;;;;5085315;28;20059;-76
2022/01/11 04:45:19;;;;;;;91.57;24.95;;;-0.40;96.20;;;;;;5079880;28;20059;-76
2022/01/11 04:47:50;;;;;;;76.35;23.35;;;-0.40;96.30;;;;;;5089086;28;20075;-76
2022/01/11 04:50:16;;;;;;;84.22;23.10;;;-0.40;96.30;;;;;;5082539;28;20048;-76
2022/01/11 04:52:43;;;;;;;87.85;24.13;;;-0.40;96.20;;;;;;5082345;28;20037;-76
2022/01/11 04:55:10;;;;;;;83.10;23.30;;;-0.30;96.40;;;;;;5080950;28;20029;-76
2022/01/11 04:57:43;;;;;;;81.17;23.97;;;-0.30;96.30;;;;;;5089750;28;20064;-75
2022/01/11 05:00:14;;;;;;;76.85;22.65;;;-0.40;96.30;;;;;;5091145;28;20233;-76
2022/01/11 05:02:41;;;;;;;69.43;24.08;;;-0.30;96.10;;;;;;5058127;28;20145;-76
2022/01/11 05:05:09;;;;;;;80.15;23.35;;;-0.40;96.10;;;;;;5086421;28;20055;-75
2022/01/11 05:07:44;;;;;;;79.03;24.45;;;-0.30;96.10;;;;;;5091564;28;20032;-75
2022/01/11 05:10:16;;;;;;;84.75;23.15;;;-0.30;96.20;;;;;;5072858;28;20056;-75
2022/01/11 05:12:43;;;;;;;86.57;23.10;;;-0.30;96.20;;;;;;5098079;28;20107;-75
2022/01/11 05:15:14;;;;;;;76.00;23.33;;;-0.30;96.10;;;;;;5090227;28;20048;-76
2022/01/11 05:17:48;;;;;;;87.95;23.77;;;-0.30;95.90;;;;;;5061680;28;20052;-75
2022/01/11 05:20:15;;;;;;;85.47;24.02;;;-0.40;95.90;;;;;;5076798;28;20056;-76
2022/01/11 05:22:42;;;;;;;83.57;23.33;;;-0.40;95.90;;;;;;5090356;28;20091;-76
2022/01/11 05:25:11;;;;;;;91.38;23.38;;;-0.30;96.10;;;;;;5091464;28;20072;-75
2022/01/11 05:27:38;;;;;;;89.78;23.50;;;-0.30;96.10;;;;;;5073198;28;20043;-77
2022/01/11 05:30:06;;;;;;;88.10;24.30;;;-0.30;96.10;;;;;;5093014;28;20080;-77
2022/01/11 05:32:39;;;;;;;80.78;24.63;;;-0.30;96.10;;;;;;5076729;28;20147;-76
2022/01/11 05:35:07;;;;;;;89.72;23.40;;;-0.30;96.00;;;;;;5100267;28;20066;-75
2022/01/11 05:37:34;;;;;;;75.40;24.10;;;-0.30;96.10;;;;;;5083260;28;20104;-75
2022/01/11 05:40:02;;;;;;;89.50;23.45;;;-0.30;95.90;;;;;;5086952;28;20113;-75
2022/01/11 05:42:29;;;;;;;94.38;24.85;;;-0.30;95.80;;;;;;5077954;28;20044;-77
2022/01/11 05:44:56;;;;;;;95.07;26.20;;;-0.30;95.90;;;;;;5081028;28;20516;-76
2022/01/11 05:47:23;;;;;;;88.68;27.27;;;-0.30;96.00;;;;;;5056444;28;20513;-76
2022/01/11 05:49:50;;;;;;;85.53;23.40;;;-0.30;95.80;;;;;;5084233;28;20109;-76
2022/01/11 05:52:16;;;;;;;85.75;24.70;;;-0.40;95.80;;;;;;5080611;28;20152;-76
2022/01/11 05:54:46;;;;;;;80.55;23.75;;;-0.30;95.80;;;;;;5077599;28;20149;-76
2022/01/11 05:57:13;;;;;;;74.38;23.15;;;-0.30;95.90;;;;;;5087111;28;20076;-75
2022/01/11 05:59:40;;;;;;;77.88;24.08;;;-0.30;95.80;;;;;;5088191;28;20049;-75
2022/01/11 06:02:06;;;;;;;73.75;22.58;;;-0.30;95.80;;;;;;5077412;28;20052;-75
2022/01/11 06:04:34;;;;;;;74.63;23.38;;;-0.40;95.70;;;;;;5092695;28;20019;-77
2022/01/11 06:07:00;;;;;;;75.57;23.65;;;-0.30;95.70;;;;;;5082497;28;20906;-75
2022/01/11 06:09:28;;;;;;;75.50;24.77;;;-0.40;95.80;;;;;;5096247;28;20055;-76
2022/01/11 06:11:56;;;;;;;65.13;22.77;;;-0.40;95.80;;;;;;5079588;28;20068;-76
2022/01/11 06:14:23;;;;;;;75.95;23.30;;;-0.40;95.50;;;;;;5088713;28;20055;-76
2022/01/11 06:16:50;;;;;;;74.93;22.95;;;-0.40;95.60;;;;;;5068360;28;20075;-75
2022/01/11 06:19:17;;;;;;;73.82;23.67;;;-0.40;95.60;;;;;;5083611;28;20782;-75
2022/01/11 06:21:46;;;;;;;68.40;22.67;;;-0.40;95.60;;;;;;5079658;28;20516;-75
2022/01/11 06:24:13;;;;;;;66.75;23.30;;;-0.30;95.70;;;;;;5055121;28;20033;-76
2022/01/11 06:26:42;;;;;;;67.57;23.45;;;-0.40;95.50;;;;;;5081794;28;20048;-76
2022/01/11 06:29:11;;;;;;;76.47;23.70;;;-0.40;95.40;;;;;;5084404;28;20051;-75
2022/01/11 06:31:38;;;;;;;73.70;23.58;;;-0.40;95.50;;;;;;5088090;28;20135;-76
2022/01/11 06:34:05;;;;;;;71.70;22.02;;;-0.40;95.50;;;;;;5090642;28;20033;-76
2022/01/11 06:36:32;;;;;;;61.55;22.15;;;-0.40;95.40;;;;;;5078392;28;20056;-75
2022/01/11 06:38:59;;;;;;;73.35;22.48;;;-0.40;95.30;;;;;;5092210;28;20059;-75
2022/01/11 06:41:25;;;;;;;78.55;24.20;;;-0.40;95.40;;;;;;5090711;28;20037;-75
2022/01/11 06:43:54;;;;;;;77.43;24.00;;;-0.40;95.50;;;;;;5062156;28;20094;-75
2022/01/11 06:46:23;;;;;;;79.20;24.38;;;-0.40;95.50;;;;;;5051337;28;20058;-75
2022/01/11 06:48:51;;;;;;;77.85;22.85;;;-0.40;95.60;;;;;;5049958;28;20517;-75
2022/01/11 06:51:19;;;;;;;69.40;24.77;;;-0.40;95.60;;;;;;5046156;28;20084;-75
2022/01/11 06:53:46;;;;;;;74.18;22.98;;;-0.40;95.40;;;;;;5037647;28;20058;-74
2022/01/11 06:56:13;;;;;;;74.97;23.38;;;-0.40;95.30;;;;;;5049411;28;20046;-75
2022/01/11 06:58:40;;;;;;;75.45;23.23;;;-0.40;95.40;;;;;;5041529;28;20129;-75
2022/01/11 07:01:06;;;;;;;74.80;23.60;;;-0.40;95.40;;;;;;5042795;28;20935;-75
2022/01/11 07:03:33;;;;;;;68.55;23.50;;;-0.30;95.40;;;;;;5031482;28;20081;-75
2022/01/11 07:06:00;;;;;;;71.20;24.25;;;-0.40;95.30;;;;;;5044354;28;21031;-74
2022/01/11 07:08:27;;;;;;;66.85;23.02;;;-0.40;95.20;;;;;;5040166;28;20098;-75
2022/01/11 07:10:54;;;;;;;70.55;23.48;;;-0.40;95.10;;;;;;5022661;28;20045;-75
2022/01/11 07:13:21;;;;;;;68.97;24.85;;;-0.40;95.10;;;;;;5057905;28;20144;-76
2022/01/11 07:15:48;;;;;;;75.93;24.85;;;-0.40;95.00;;;;;;5063379;28;20046;-77
2022/01/11 07:18:14;;;;;;;76.70;28.15;;;-0.40;95.10;;;;;;5077335;28;20049;-77
2022/01/11 07:20:42;;;;;;;74.82;25.65;;;-0.40;95.00;;;;;;5074653;28;21030;-76
2022/01/11 07:23:12;;;;;;;74.57;24.33;;;-0.50;95.10;;;;;;5065804;28;20034;-77
2022/01/11 07:25:39;;;;;;;71.97;24.48;;;-0.50;95.10;;;;;;5061796;28;20081;-76
2022/01/11 07:28:06;;;;;;;71.25;23.73;;;-0.50;95.10;;;;;;5057500;28;20064;-76
2022/01/11 07:30:33;;;;;;;67.10;24.08;;;-0.50;95.10;;;;;;5056249;28;20052;-76
2022/01/11 07:33:00;;;;;;;66.88;24.13;;;-0.50;95.00;;;;;;5065537;28;20048;-75
2022/01/11 07:35:26;;;;;;;69.38;24.08;;;-0.50;95.10;;;;;;5066308;28;20141;-75
2022/01/11 07:37:57;;;;;;;68.13;21.77;;;-0.50;95.10;;;;;;5062882;28;20485;-75
2022/01/11 07:40:23;;;;;;;63.80;23.02;;;-0.50;95.00;;;;;;5059174;28;20128;-75
2022/01/11 07:42:51;;;;;;;68.30;23.98;;;-0.50;94.80;;;;;;5065993;28;21181;-75
2022/01/11 07:45:19;;;;;;;64.78;23.00;;;-0.60;94.90;;;;;;5065267;28;20148;-76
2022/01/11 07:47:46;;;;;;;73.93;23.15;;;-0.50;94.90;;;;;;5070992;28;20093;-76
2022/01/11 07:50:13;;;;;;;67.03;23.15;;;-0.50;94.80;;;;;;5060812;28;20072;-76
2022/01/11 07:52:40;;;;;;;64.82;22.40;;;-0.60;94.60;;;;;;5063649;28;20045;-76
2022/01/11 07:55:07;;;;;;;61.97;22.38;;;-0.50;94.60;;;;;;5064382;28;20042;-75
2022/01/11 07:57:34;;;;;;;59.30;22.10;;;-0.50;94.80;;;;;;5066283;28;20042;-77
2022/01/11 08:00:03;;;;;;;66.00;22.63;;;-0.50;94.70;;;;;;5069267;28;20044;-76
2022/01/11 08:02:30;;;;;;;62.30;22.55;;;-0.50;94.80;;;;;;5074263;28;20108;-75
2022/01/11 08:04:57;;;;;;;56.45;21.55;;;-0.50;94.70;;;;;;5076798;28;20130;-76
2022/01/11 08:07:25;;;;;;;68.15;22.80;;;-0.50;94.60;;;;;;5068242;28;20029;-76
2022/01/11 08:09:52;;;;;;;57.20;22.48;;;-0.40;94.70;;;;;;5072192;28;20034;-76
2022/01/11 08:12:18;;;;;;;61.25;21.92;;;-0.40;94.50;;;;;;5074857;28;20148;-77
2022/01/11 08:14:45;;;;;;;54.40;21.08;;;-0.40;94.50;;;;;;5073229;28;20090;-75
2022/01/11 08:17:12;;;;;;;55.13;21.10;;;-0.30;94.50;;;;;;5072966;28;20089;-76
2022/01/11 08:19:38;;;;;;;57.30;21.10;;;-0.30;94.60;;;;;;5073739;28;20089;-76
2022/01/11 08:22:08;;;;;;;50.40;20.20;;;-0.30;94.30;;;;;;5073567;28;20061;-77
2022/01/11 08:24:38;;;;;;;59.38;21.77;;;-0.30;93.80;;;;;;5086681;28;20017;-78
2022/01/11 08:27:05;;;;;;;50.75;20.75;;;-0.30;93.90;;;;;;5067632;28;20103;-76
2022/01/11 08:29:31;;;;;;;51.72;21.52;;;-0.20;93.90;;;;;;5068628;28;20048;-77
2022/01/11 08:31:58;;;;;;;46.13;20.23;;;-0.20;93.50;;;;;;5074927;28;20080;-76
2022/01/11 08:34:25;;;;;;;50.95;20.92;;;-0.20;93.30;;;;;;5070732;28;20033;-77
2022/01/11 08:36:54;;;;;;;48.25;20.70;;;-0.10;93.60;;;;;;5071213;28;20053;-77
2022/01/11 08:39:21;;;;;;;45.95;20.10;;;-0.10;93.60;;;;;;5070662;28;20132;-76
2022/01/11 08:41:48;;;;;;;44.90;18.13;;;-0.10;93.10;;;;;;5063491;28;20038;-77
2022/01/11 08:44:20;;;;;;;44.92;19.88;;;-0.10;92.70;;;;;;5063168;28;20105;-76
2022/01/11 08:46:46;;;;;;;46.92;19.50;;;-0.20;92.40;;;;;;5073159;28;20041;-77
2022/01/11 08:49:13;;;;;;;47.90;20.08;;;-0.20;92.70;;;;;;5066065;28;20053;-77
2022/01/11 08:51:41;;;;;;;43.40;19.77;;;-0.20;92.80;;;;;;5064081;28;20534;-76
2022/01/11 08:54:08;;;;;;;46.00;19.17;;;-0.20;92.50;;;;;;5068257;28;20117;-77
2022/01/11 08:56:35;;;;;;;42.90;19.88;;;-0.20;92.20;;;;;;5061589;28;20133;-75
2022/01/11 08:59:02;;;;;;;46.45;19.17;;;-0.20;92.30;;;;;;5069468;28;20105;-77
2022/01/11 09:01:31;;;;;;;42.80;18.65;;;-0.20;92.60;;;;;;5070288;28;20026;-77
2022/01/11 09:03:58;;;;;;;42.85;19.30;;;-0.20;92.60;;;;;;5078835;28;20091;-78
2022/01/11 09:06:25;;;;;;;44.53;17.60;;;-0.20;92.50;;;;;;5077837;28;20790;-77
2022/01/11 09:09:12;;;;;;;47.67;19.27;;;-0.20;92.60;;;;;;5076876;28;20037;-78
2022/01/11 09:11:41;;;;;;;42.05;18.42;;;-0.20;92.80;;;;;;5073279;28;20033;-77
2022/01/11 09:14:08;;;;;;;45.20;19.38;;;-0.20;92.70;;;;;;5067331;28;20049;-77
2022/01/11 09:16:35;;;;;;;40.80;17.02;;;-0.20;92.60;;;;;;5074189;28;20097;-77
2022/01/11 09:19:02;;;;;;;38.38;17.88;;;-0.20;92.70;;;;;;5074525;28;20044;-76
2022/01/11 09:21:31;;;;;;;40.83;18.58;;;-0.10;92.30;;;;;;5073203;28;20042;-76
2022/01/11 09:23:58;;;;;;;41.28;17.70;;;-0.10;92.30;;;;;;5077941;28;20093;-78
2022/01/11 09:26:25;;;;;;;35.83;16.90;;;-0.10;92.10;;;;;;5075012;28;20052;-78
2022/01/11 09:28:52;;;;;;;48.50;18.63;;;-0.10;91.60;;;;;;5068974;28;20056;-78
2022/01/11 09:31:18;;;;;;;41.13;18.65;;;-0.10;91.70;;;;;;5086065;28;20093;-78
2022/01/11 09:33:46;;;;;;;39.42;18.15;;;0.00;91.90;;;;;;5072925;28;20054;-78
2022/01/11 09:36:13;;;;;;;36.80;17.88;;;0.00;91.70;;;;;;5072647;28;20085;-78
2022/01/11 09:38:47;;;;;;;39.42;17.00;;;0.10;91.90;;;;;;5076516;28;20041;-78
2022/01/11 09:41:14;;;;;;;38.50;17.40;;;0.10;91.60;;;;;;5083187;28;20020;-78
2022/01/11 09:43:43;;;;;;;38.55;17.48;;;0.10;91.70;;;;;;5077600;28;20021;-76
2022/01/11 09:46:13;;;;;;;39.88;18.60;;;0.20;92.00;;;;;;5066305;28;20049;-77
2022/01/11 09:48:47;;;;;;;41.13;16.90;;;0.20;91.60;;;;;;5074071;28;20475;-78
2022/01/11 09:51:14;;;;;;;35.15;17.08;;;0.20;90.60;;;;;;5082204;28;20089;-79
2022/01/11 09:53:43;;;;;;;37.47;17.67;;;0.30;90.80;;;;;;5078560;28;20129;-78
2022/01/11 09:56:15;;;;;;;37.53;17.42;;;0.30;90.40;;;;;;5083139;28;20045;-78
2022/01/11 09:58:43;;;;;;;36.08;18.33;;;0.40;90.90;;;;;;5078023;28;20081;-78
2022/01/11 10:01:12;;;;;;;35.45;16.73;;;0.50;91.00;;;;;;5086553;28;20021;-78
2022/01/11 10:04:04;;;;;;;39.83;17.38;;;0.60;91.30;;;;;;5070070;28;20089;-78
2022/01/11 10:06:33;;;;;;;34.80;16.60;;;0.70;91.20;;;;;;5073130;28;20137;-78
2022/01/11 10:09:16;;;;;;;35.47;16.92;;;0.80;90.60;;;;;;5076424;28;20065;-78
2022/01/11 10:11:47;;;;;;;32.45;16.08;;;0.90;90.20;;;;;;5074418;28;20036;-79
2022/01/11 10:14:19;;;;;;;34.13;16.60;;;0.90;89.70;;;;;;5074268;28;20030;-77
2022/01/11 10:16:47;;;;;;;33.42;16.05;;;1.00;89.00;;;;;;5079937;28;20546;-79
2022/01/11 10:19:26;;;;;;;35.05;16.25;;;1.10;88.80;;;;;;5068057;28;20125;-78
2022/01/11 10:21:57;;;;;;;35.03;16.35;;;1.60;88.50;;;;;;5073785;28;20101;-78
2022/01/11 10:24:51;;;;;;;32.15;14.60;;;1.70;87.90;;;;;;5073476;28;20108;-79
2022/01/11 10:27:26;;;;;;;30.30;14.52;;;1.70;88.30;;;;;;5070082;28;20065;-77
2022/01/11 10:29:55;;;;;;;33.70;15.05;;;1.80;87.70;;;;;;5080984;28;20105;-77
2022/01/11 10:32:33;;;;;;;31.25;15.57;;;1.70;87.70;;;;;;5076686;28;20049;-77
2022/01/11 10:35:06;;;;;;;27.75;14.98;;;1.80;88.10;;;;;;5071033;28;20057;-77
2022/01/11 10:37:39;;;;;;;29.15;14.57;;;1.90;87.20;;;;;;5073516;28;20085;-78
2022/01/11 10:40:08;;;;;;;29.98;15.55;;;1.90;88.30;;;;;;5073888;28;20080;-77
2022/01/11 10:42:39;;;;;;;34.45;15.23;;;2.20;88.60;;;;;;5074744;28;20101;-77
2022/01/11 10:45:11;;;;;;;28.50;14.13;;;2.40;87.30;;;;;;5069162;28;20263;-79
2022/01/11 10:47:41;;;;;;;29.10;13.65;;;2.30;85.20;;;;;;5073142;28;20067;-78
2022/01/11 10:50:10;;;;;;;29.30;14.77;;;2.30;85.50;;;;;;5072800;28;20068;-77
2022/01/11 10:52:40;;;;;;;28.20;14.13;;;2.30;86.20;;;;;;5085298;28;20026;-77
2022/01/11 10:55:11;;;;;;;30.60;15.23;;;2.30;86.70;;;;;;5078100;28;20033;-78
2022/01/11 10:57:38;;;;;;;30.20;14.93;;;2.30;86.40;;;;;;5067394;28;20109;-78
2022/01/11 11:00:08;;;;;;;29.70;15.20;;;2.40;87.40;;;;;;5078710;28;20105;-77
2022/01/11 11:02:35;;;;;;;26.80;13.98;;;2.50;87.40;;;;;;5081013;28;20105;-77
2022/01/11 11:05:17;;;;;;;28.30;14.40;;;2.60;87.20;;;;;;5073112;28;20086;-77
2022/01/11 11:08:09;;;;;;;31.75;14.60;;;2.60;86.20;;;;;;5075151;28;20025;-77
2022/01/11 11:10:49;;;;;;;30.13;14.05;;;2.60;85.20;;;;;;5076383;28;20040;-77
2022/01/11 11:13:21;;;;;;;23.77;13.38;;;2.60;84.50;;;;;;5070763;28;20064;-77
2022/01/11 11:15:50;;;;;;;26.35;14.50;;;2.70;86.40;;;;;;5076668;28;20057;-77
2022/01/11 11:18:32;;;;;;;29.02;14.00;;;2.80;86.50;;;;;;5077169;28;20037;-77
2022/01/11 11:21:22;;;;;;;28.77;13.15;;;2.80;85.70;;;;;;5078717;28;20038;-77
2022/01/11 11:23:55;;;;;;;28.17;14.23;;;2.90;85.30;;;;;;5081825;28;20044;-77
2022/01/11 11:26:30;;;;;;;23.20;12.85;;;2.90;86.50;;;;;;5074059;28;20052;-76
2022/01/11 11:28:58;;;;;;;27.80;13.80;;;3.00;83.30;;;;;;5079931;28;20084;-77
2022/01/11 11:31:37;;;;;;;24.95;13.43;;;2.90;84.80;;;;;;5112051;22;20037;-76
2022/01/11 11:34:10;;;;;;;26.92;13.43;;;3.00;84.90;;;;;;5080164;28;20049;-77
2022/01/11 11:36:41;;;;;;;25.95;13.75;;;3.00;84.10;;;;;;5074263;28;20048;-77
2022/01/11 11:39:17;;;;;;;25.23;13.15;;;3.00;85.40;;;;;;5081067;28;20061;-77
2022/01/11 11:41:47;;;;;;;28.38;13.48;;;3.10;84.90;;;;;;5080602;28;20044;-77
2022/01/11 11:44:19;;;;;;;26.17;13.55;;;3.00;83.90;;;;;;5078547;28;20959;-76
2022/01/11 11:46:55;;;;;;;27.70;13.43;;;3.00;85.00;;;;;;5055962;28;20045;-76
2022/01/11 11:49:47;;;;;;;27.50;11.93;;;3.10;85.20;;;;;;5078582;28;20045;-76
2022/01/11 11:52:39;;;;;;;28.85;12.57;;;3.00;81.60;;;;;;5074915;28;20025;-76
2022/01/11 11:55:27;;;;;;;26.50;12.73;;;3.00;83.10;;;;;;5082827;28;20030;-76
2022/01/11 11:58:09;;;;;;;26.05;12.60;;;3.00;83.80;;;;;;5071217;28;20033;-76
2022/01/11 12:00:41;;;;;;;27.17;13.38;;;3.00;84.50;;;;;;5054710;28;20052;-77
2022/01/11 12:03:25;;;;;;;28.88;12.88;;;3.00;82.80;;;;;;5068302;28;20045;-77
2022/01/11 12:05:56;;;;;;;30.13;13.15;;;3.00;82.90;;;;;;5077116;28;20093;-76
2022/01/11 12:08:43;;;;;;;25.60;12.52;;;3.00;84.40;;;;;;5069689;28;20584;-77
2022/01/11 12:11:19;;;;;;;24.58;11.57;;;3.00;83.20;;;;;;5082370;28;20037;-79
2022/01/11 12:13:47;;;;;;;29.38;12.43;;;3.00;84.40;;;;;;5072720;28;20037;-77
2022/01/11 12:16:26;;;;;;;24.33;12.52;;;3.00;82.80;;;;;;5065562;28;20090;-77
2022/01/11 12:18:59;;;;;;;22.25;11.38;;;3.00;83.30;;;;;;5077231;28;20091;-77
2022/01/11 12:21:29;;;;;;;22.95;12.20;;;3.00;83.30;;;;;;5060653;28;20025;-78
2022/01/11 12:24:00;;;;;;;28.38;12.30;;;3.00;84.00;;;;;;5081828;28;20064;-77
2022/01/11 12:26:30;;;;;;;28.00;11.98;;;3.00;83.60;;;;;;5075011;28;20037;-77
2022/01/11 12:29:09;;;;;;;26.98;12.57;;;3.00;83.10;;;;;;5062219;28;20064;-79
2022/01/11 12:32:00;;;;;;;26.90;12.32;;;3.00;82.60;;;;;;5079416;28;20072;-78
2022/01/11 12:34:58;;;;;;;27.05;11.73;;;3.00;83.20;;;;;;5056383;28;20045;-79
2022/01/11 12:37:32;;;;;;;19.50;10.95;;;3.00;82.70;;;;;;5044355;28;20037;-78
2022/01/11 12:40:09;;;;;;;28.08;12.20;;;3.00;83.70;;;;;;5063897;28;20045;-78
2022/01/11 12:42:53;;;;;;;23.80;12.73;;;3.10;83.90;;;;;;5078673;28;20041;-78
2022/01/11 12:45:38;;;;;;;;;;;3.20;83.70;;;;;;5073100;28;20026;-78